Time;durP1;ratioP1;P1;durP2;ratioP2;P2;SDS_P1;SDS_P2;PMS_P1;PMS_P2;Temp;Humidity;BMP_temperature;BMP_pressure;BME280_temperature;BME280_humidity;BME280_pressure;Samples;Min_cycle;Max_cycle;Signal;HPM_P1;HPM_P2
2022/04/30 00:02:24;;;;;;;20.53;14.33;;;;;;;;;;5073211;28;20467;-71
2022/04/30 00:04:52;;;;;;;20.83;14.30;;;;;;;;;;5072936;28;20463;-71
2022/04/30 00:07:20;;;;;;;15.80;13.60;;;;;;;;;;5073166;28;20451;-71
2022/04/30 00:09:48;;;;;;;22.40;14.57;;;;;;;;;;5073249;28;20475;-71
2022/04/30 00:12:16;;;;;;;18.37;15.20;;;;;;;;;;5072832;28;20490;-71
2022/04/30 00:14:43;;;;;;;19.83;15.13;;;;;;;;;;5072819;28;20462;-71
2022/04/30 00:17:12;;;;;;;18.13;15.50;;;;;;;;;;5072747;28;20448;-71
2022/04/30 00:19:39;;;;;;;19.97;15.37;;;;;;;;;;5073079;28;20478;-71
2022/04/30 00:22:06;;;;;;;19.83;15.70;;;;;;;;;;5072461;28;20968;-71
2022/04/30 00:24:33;;;;;;;17.10;14.47;;;;;;;;;;5072573;28;20471;-71
2022/04/30 00:27:01;;;;;;;17.30;14.07;;;;;;;;;;5072811;28;20447;-71
2022/04/30 00:29:29;;;;;;;19.80;15.90;;;;;;;;;;5072779;28;20479;-71
2022/04/30 00:31:56;;;;;;;19.73;14.57;;;;;;;;;;5072978;28;20487;-71
2022/04/30 00:34:25;;;;;;;18.83;14.97;;;;;;;;;;5072731;28;20463;-71
2022/04/30 00:36:52;;;;;;;22.80;15.00;;;;;;;;;;5072915;28;20458;-71
2022/04/30 00:39:19;;;;;;;21.87;15.30;;;;;;;;;;5078040;28;20482;-71
2022/04/30 00:41:47;;;;;;;15.43;11.90;;;;;;;;;;5079415;28;20462;-71
2022/04/30 00:44:17;;;;;;;19.57;13.83;;;;;;;;;;5079124;28;20451;-71
2022/04/30 00:46:45;;;;;;;15.23;13.20;;;;;;;;;;5079324;28;20448;-71
2022/04/30 00:49:12;;;;;;;20.40;12.80;;;;;;;;;;5079124;28;20482;-71
2022/04/30 00:51:41;;;;;;;17.80;13.87;;;;;;;;;;5079113;28;21026;-71
2022/04/30 00:54:09;;;;;;;20.30;13.63;;;;;;;;;;5078908;28;20455;-71
2022/04/30 00:56:37;;;;;;;21.07;15.33;;;;;;;;;;5079070;28;20451;-71
2022/04/30 00:59:05;;;;;;;20.23;15.33;;;;;;;;;;5079093;28;20475;-71
2022/04/30 01:01:33;;;;;;;21.33;14.90;;;;;;;;;;5079240;28;20523;-71
2022/04/30 01:04:00;;;;;;;20.47;16.10;;;;;;;;;;5078759;28;20447;-71
2022/04/30 01:06:37;;;;;;;26.00;17.57;;;;;;;;;;5079150;28;20458;-71
2022/04/30 01:09:06;;;;;;;31.80;21.37;;;;;;;;;;5079005;28;20475;-71
2022/04/30 01:11:33;;;;;;;34.20;22.93;;;;;;;;;;5079157;28;20820;-71
2022/04/30 01:14:00;;;;;;;31.27;23.83;;;;;;;;;;5078731;28;20471;-71
2022/04/30 01:16:27;;;;;;;34.30;25.03;;;;;;;;;;5079086;28;20976;-71
2022/04/30 01:18:55;;;;;;;44.33;29.57;;;;;;;;;;5079170;28;20955;-71
2022/04/30 01:21:23;;;;;;;41.40;28.70;;;;;;;;;;5078863;28;20459;-71
2022/04/30 01:23:52;;;;;;;41.90;28.23;;;;;;;;;;5078171;28;20468;-71
2022/04/30 01:26:20;;;;;;;41.87;28.47;;;;;;;;;;5078896;28;20455;-71
2022/04/30 01:28:48;;;;;;;33.33;22.80;;;;;;;;;;5078728;28;20474;-70
2022/04/30 01:39:35;;;;;;;26.70;18.23;;;;;;;;;;5063038;28;20451;-70
2022/04/30 01:42:11;;;;;;;24.37;16.07;;;;;;;;;;5078730;28;20447;-70
2022/04/30 01:44:38;;;;;;;21.10;17.23;;;;;;;;;;5078693;28;20553;-70
2022/04/30 01:47:06;;;;;;;21.00;16.90;;;;;;;;;;5078669;28;20462;-70
2022/04/30 01:49:33;;;;;;;21.50;16.63;;;;;;;;;;5076966;28;20478;-70
2022/04/30 01:52:00;;;;;;;18.40;15.47;;;;;;;;;;5075210;28;20494;-70
2022/04/30 01:54:28;;;;;;;23.73;15.50;;;;;;;;;;5075259;28;20456;-70
2022/04/30 01:56:57;;;;;;;22.00;16.50;;;;;;;;;;5075344;28;20980;-70
2022/04/30 01:59:24;;;;;;;29.23;17.40;;;;;;;;;;5075776;28;20984;-70
2022/04/30 02:01:51;;;;;;;25.60;17.43;;;;;;;;;;5075291;28;20811;-70
2022/04/30 02:04:18;;;;;;;21.60;16.23;;;;;;;;;;5075032;28;20461;-71
2022/04/30 02:06:46;;;;;;;29.33;18.57;;;;;;;;;;5075298;28;20463;-70
2022/04/30 02:09:14;;;;;;;23.77;17.37;;;;;;;;;;5075165;28;20467;-70
2022/04/30 02:11:41;;;;;;;21.10;16.37;;;;;;;;;;5075286;28;20454;-70
2022/04/30 02:14:12;;;;;;;19.37;15.67;;;;;;;;;;5074902;28;20815;-71
2022/04/30 02:16:40;;;;;;;24.57;15.67;;;;;;;;;;5075423;28;20831;-71
2022/04/30 02:19:08;;;;;;;22.57;16.70;;;;;;;;;;5074947;28;20468;-71
2022/04/30 02:21:35;;;;;;;23.47;19.10;;;;;;;;;;5075095;28;20451;-71
2022/04/30 02:24:03;;;;;;;18.80;16.33;;;;;;;;;;5074592;28;20460;-71
2022/04/30 02:26:30;;;;;;;19.93;15.60;;;;;;;;;;5074882;28;20447;-71
2022/04/30 02:28:58;;;;;;;23.23;16.63;;;;;;;;;;5074971;28;20468;-71
2022/04/30 02:31:28;;;;;;;21.13;15.87;;;;;;;;;;5074853;28;20928;-70
2022/04/30 02:33:56;;;;;;;19.90;15.83;;;;;;;;;;5074935;28;20483;-71
2022/04/30 02:36:26;;;;;;;25.00;17.23;;;;;;;;;;5074889;28;20455;-71
2022/04/30 02:38:54;;;;;;;20.20;16.00;;;;;;;;;;5074974;28;20885;-71
2022/04/30 02:41:21;;;;;;;21.03;16.37;;;;;;;;;;5074821;28;20885;-71
2022/04/30 02:43:50;;;;;;;19.23;15.97;;;;;;;;;;5074375;28;20460;-71
2022/04/30 02:46:17;;;;;;;19.40;16.40;;;;;;;;;;5074423;28;20464;-71
2022/04/30 02:48:45;;;;;;;22.27;15.50;;;;;;;;;;5074569;28;20478;-70
2022/04/30 02:51:12;;;;;;;20.23;16.27;;;;;;;;;;5074579;28;20455;-70
2022/04/30 02:53:40;;;;;;;16.73;14.93;;;;;;;;;;5074256;28;20494;-71
2022/04/30 02:56:07;;;;;;;17.93;16.03;;;;;;;;;;5074347;28;20451;-71
2022/04/30 03:01:20;;;;;;;19.97;16.87;;;;;;;;;;5074246;28;20419;-71
2022/04/30 03:03:49;;;;;;;22.13;16.23;;;;;;;;;;5074068;28;20452;-71
2022/04/30 03:06:17;;;;;;;16.50;14.33;;;;;;;;;;5074230;28;20460;-70
2022/04/30 03:08:46;;;;;;;19.80;15.00;;;;;;;;;;5074125;28;20486;-70
2022/04/30 03:11:13;;;;;;;26.30;18.23;;;;;;;;;;5074185;28;20529;-70
2022/04/30 03:13:40;;;;;;;24.13;17.43;;;;;;;;;;5073733;28;20487;-71
2022/04/30 03:21:44;;;;;;;20.57;15.10;;;;;;;;;;5073550;28;20407;-71
2022/04/30 03:24:11;;;;;;;22.43;16.37;;;;;;;;;;5073534;28;20459;-70
2022/04/30 03:26:38;;;;;;;27.33;17.30;;;;;;;;;;5073741;28;20447;-70
2022/04/30 03:29:05;;;;;;;17.63;14.57;;;;;;;;;;5073438;28;20471;-70
2022/04/30 03:31:32;;;;;;;18.03;14.93;;;;;;;;;;5073841;28;20572;-71
2022/04/30 03:34:01;;;;;;;18.97;14.47;;;;;;;;;;5073393;28;20488;-70
2022/04/30 03:36:29;;;;;;;18.40;14.87;;;;;;;;;;5073694;28;20448;-70
2022/04/30 03:38:56;;;;;;;20.57;16.13;;;;;;;;;;5073808;28;20511;-70
2022/04/30 03:41:23;;;;;;;20.20;14.63;;;;;;;;;;5073918;28;20522;-70
2022/04/30 03:43:50;;;;;;;20.17;14.13;;;;;;;;;;5073298;28;20458;-70
2022/04/30 03:46:18;;;;;;;22.73;14.40;;;;;;;;;;5073287;28;20439;-68
2022/04/30 03:48:47;;;;;;;19.90;15.67;;;;;;;;;;5073349;28;20467;-68
2022/04/30 03:51:16;;;;;;;18.37;13.87;;;;;;;;;;5073234;28;20455;-68
2022/04/30 03:53:43;;;;;;;18.90;14.37;;;;;;;;;;5073010;28;20548;-68
2022/04/30 03:56:10;;;;;;;19.40;15.10;;;;;;;;;;5073063;28;20514;-68
2022/04/30 03:58:37;;;;;;;19.30;15.67;;;;;;;;;;5072975;28;20458;-68
2022/04/30 04:01:04;;;;;;;22.57;15.17;;;;;;;;;;5073031;28;20476;-68
2022/04/30 04:03:32;;;;;;;20.10;15.73;;;;;;;;;;5072884;28;20452;-69
2022/04/30 04:06:00;;;;;;;20.37;15.70;;;;;;;;;;5072972;28;20455;-70
2022/04/30 04:08:28;;;;;;;19.70;15.33;;;;;;;;;;5072947;28;20454;-71
2022/04/30 04:10:56;;;;;;;23.63;15.90;;;;;;;;;;5072954;28;20455;-71
2022/04/30 04:18:54;;;;;;;36.77;16.43;;;;;;;;;;5072983;28;20497;-70
2022/04/30 04:21:22;;;;;;;22.00;15.90;;;;;;;;;;5072927;28;20460;-70
2022/04/30 04:26:41;;;;;;;23.67;14.53;;;;;;;;;;5016184;28;20537;-70
2022/04/30 04:29:08;;;;;;;18.00;14.17;;;;;;;;;;5072822;28;20463;-70
2022/04/30 04:31:35;;;;;;;18.50;14.10;;;;;;;;;;5072924;28;20443;-70
2022/04/30 04:34:02;;;;;;;18.27;13.23;;;;;;;;;;5072482;28;20483;-71
2022/04/30 04:36:29;;;;;;;20.67;14.73;;;;;;;;;;5072777;28;20452;-70
2022/04/30 04:38:57;;;;;;;17.70;12.57;;;;;;;;;;5072746;28;20956;-70
2022/04/30 04:41:24;;;;;;;16.87;12.73;;;;;;;;;;5072924;28;20823;-71
2022/04/30 04:43:51;;;;;;;15.33;13.50;;;;;;;;;;5072433;28;20824;-71
2022/04/30 04:46:18;;;;;;;18.30;12.53;;;;;;;;;;5072476;28;20828;-71
2022/04/30 04:48:46;;;;;;;13.30;11.90;;;;;;;;;;5072484;28;20886;-71
2022/04/30 04:51:13;;;;;;;15.60;12.20;;;;;;;;;;5072417;28;20460;-71
2022/04/30 04:53:40;;;;;;;15.07;13.13;;;;;;;;;;5072215;28;20487;-71
2022/04/30 04:56:08;;;;;;;18.10;14.13;;;;;;;;;;5072309;28;20448;-71
2022/04/30 04:58:35;;;;;;;15.23;12.53;;;;;;;;;;5072613;28;20454;-71
2022/04/30 05:01:02;;;;;;;15.60;12.67;;;;;;;;;;5072824;28;20949;-71
2022/04/30 05:03:29;;;;;;;14.63;11.23;;;;;;;;;;5072339;28;20785;-71
2022/04/30 05:05:56;;;;;;;19.50;11.97;;;;;;;;;;5072451;28;20783;-71
2022/04/30 05:08:24;;;;;;;18.97;14.07;;;;;;;;;;5072393;28;20824;-71
2022/04/30 05:10:51;;;;;;;15.73;12.53;;;;;;;;;;5072441;28;20458;-71
2022/04/30 05:13:19;;;;;;;15.10;12.83;;;;;;;;;;5072239;28;20487;-71
2022/04/30 05:15:46;;;;;;;15.80;13.50;;;;;;;;;;5072210;28;20454;-71
2022/04/30 05:18:13;;;;;;;14.00;12.50;;;;;;;;;;5072174;28;20451;-71
2022/04/30 05:20:40;;;;;;;14.03;11.83;;;;;;;;;;5072584;28;20972;-71
2022/04/30 05:23:07;;;;;;;15.37;12.03;;;;;;;;;;5071656;28;20984;-71
2022/04/30 05:25:35;;;;;;;15.27;13.30;;;;;;;;;;5073594;28;20534;-71
2022/04/30 05:28:02;;;;;;;14.10;11.87;;;;;;;;;;5075824;28;20460;-71
2022/04/30 05:30:30;;;;;;;18.40;12.97;;;;;;;;;;5075833;28;20478;-70
2022/04/30 05:32:57;;;;;;;14.73;12.97;;;;;;;;;;5075879;28;20925;-70
2022/04/30 05:35:25;;;;;;;18.17;16.07;;;;;;;;;;5075836;28;20862;-70
2022/04/30 05:37:52;;;;;;;15.73;14.03;;;;;;;;;;5075796;28;20455;-70
2022/04/30 05:40:19;;;;;;;16.03;13.90;;;;;;;;;;5075627;28;20467;-70
2022/04/30 05:42:46;;;;;;;14.50;12.57;;;;;;;;;;5075694;28;20466;-70
2022/04/30 05:45:13;;;;;;;18.80;14.07;;;;;;;;;;5075779;28;20452;-71
2022/04/30 05:47:42;;;;;;;21.33;13.27;;;;;;;;;;5075741;28;20456;-71
2022/04/30 05:50:10;;;;;;;18.63;14.10;;;;;;;;;;5075610;28;20475;-71
2022/04/30 05:52:37;;;;;;;15.47;13.23;;;;;;;;;;5075509;28;20487;-71
2022/04/30 05:55:05;;;;;;;14.63;13.13;;;;;;;;;;5075149;28;20521;-71
2022/04/30 05:57:32;;;;;;;15.90;14.23;;;;;;;;;;5075502;28;20455;-70
2022/04/30 05:59:59;;;;;;;15.30;13.40;;;;;;;;;;5075521;28;20475;-70
2022/04/30 06:02:26;;;;;;;19.10;15.17;;;;;;;;;;5075544;28;20466;-70
2022/04/30 06:04:55;;;;;;;25.03;18.03;;;;;;;;;;5075357;28;20448;-71
2022/04/30 06:07:22;;;;;;;24.13;19.37;;;;;;;;;;5075296;28;20814;-71
2022/04/30 06:09:50;;;;;;;22.30;18.57;;;;;;;;;;5074997;28;20518;-71
2022/04/30 06:12:17;;;;;;;15.63;12.97;;;;;;;;;;5075332;28;20452;-71
2022/04/30 06:14:44;;;;;;;17.47;14.10;;;;;;;;;;5075007;28;20530;-71
2022/04/30 06:17:11;;;;;;;13.93;12.57;;;;;;;;;;5075139;28;20451;-71
2022/04/30 06:19:38;;;;;;;25.27;12.07;;;;;;;;;;5075230;28;20856;-71
2022/04/30 06:22:07;;;;;;;12.80;10.83;;;;;;;;;;5074892;28;20447;-71
2022/04/30 06:24:34;;;;;;;14.10;12.60;;;;;;;;;;5074912;28;20451;-71
2022/04/30 06:27:01;;;;;;;13.90;12.10;;;;;;;;;;5074922;28;20875;-71
2022/04/30 06:29:30;;;;;;;12.53;11.17;;;;;;;;;;5074857;28;20468;-71
2022/04/30 06:31:57;;;;;;;14.47;11.70;;;;;;;;;;5075072;28;20804;-71
2022/04/30 06:34:24;;;;;;;13.90;11.40;;;;;;;;;;5074734;28;20487;-71
2022/04/30 06:36:51;;;;;;;12.03;10.83;;;;;;;;;;5074407;28;20455;-71
2022/04/30 06:39:20;;;;;;;12.20;10.63;;;;;;;;;;5074691;28;20482;-71
2022/04/30 06:41:47;;;;;;;16.13;10.97;;;;;;;;;;5074679;28;20486;-71
2022/04/30 06:44:14;;;;;;;10.87;9.70;;;;;;;;;;5074444;28;20455;-71
2022/04/30 06:46:41;;;;;;;14.80;11.73;;;;;;;;;;5074726;28;20471;-71
2022/04/30 06:49:08;;;;;;;11.03;10.00;;;;;;;;;;5074516;28;20480;-71
2022/04/30 06:51:35;;;;;;;11.50;10.20;;;;;;;;;;5082202;28;20481;-71
2022/04/30 06:59:45;;;;;;;12.83;10.23;;;;;;;;;;5015012;28;20870;-71
2022/04/30 07:02:19;;;;;;;9.73;8.83;;;;;;;;;;5057938;28;20493;-71
2022/04/30 07:04:47;;;;;;;11.27;10.17;;;;;;;;;;5073057;28;20432;-71
2022/04/30 07:07:15;;;;;;;11.47;10.37;;;;;;;;;;5075982;28;20504;-71
2022/04/30 07:09:42;;;;;;;10.60;9.67;;;;;;;;;;5092521;28;20474;-71
2022/04/30 07:12:13;;;;;;;10.77;9.77;;;;;;;;;;5092818;28;20450;-71
2022/04/30 07:14:41;;;;;;;10.83;9.83;;;;;;;;;;5092531;28;20471;-71
2022/04/30 07:17:08;;;;;;;10.40;9.37;;;;;;;;;;5092848;28;20483;-71
2022/04/30 07:19:36;;;;;;;9.77;8.77;;;;;;;;;;5092967;28;20462;-71
2022/04/30 07:22:03;;;;;;;14.27;11.47;;;;;;;;;;5092111;28;20447;-71
2022/04/30 07:24:31;;;;;;;10.00;9.00;;;;;;;;;;5092298;28;20459;-71
2022/04/30 07:26:59;;;;;;;10.77;9.53;;;;;;;;;;5092774;28;20497;-71
2022/04/30 07:29:27;;;;;;;12.10;9.77;;;;;;;;;;5092398;28;20559;-71
2022/04/30 07:31:55;;;;;;;10.97;9.87;;;;;;;;;;5092525;28;20458;-71
2022/04/30 07:34:23;;;;;;;9.90;8.77;;;;;;;;;;5092627;28;20620;-71
2022/04/30 07:36:50;;;;;;;11.37;10.23;;;;;;;;;;5092222;28;20489;-71
2022/04/30 07:39:17;;;;;;;10.73;9.63;;;;;;;;;;5092280;28;20478;-71
2022/04/30 07:41:44;;;;;;;9.97;9.00;;;;;;;;;;5092373;28;20447;-71
2022/04/30 07:44:11;;;;;;;15.60;10.63;;;;;;;;;;5091775;28;20435;-71
2022/04/30 07:46:40;;;;;;;11.83;8.80;;;;;;;;;;5092325;28;20462;-71
2022/04/30 07:49:07;;;;;;;9.40;8.50;;;;;;;;;;5091524;28;21022;-72
2022/04/30 07:51:42;;;;;;;8.70;7.83;;;;;;;;;;5092272;28;20825;-71
2022/04/30 07:54:09;;;;;;;10.20;7.70;;;;;;;;;;5091972;28;20878;-71
2022/04/30 07:56:37;;;;;;;13.30;8.43;;;;;;;;;;5092151;28;20457;-72
2022/04/30 07:59:04;;;;;;;8.97;7.90;;;;;;;;;;5092111;28;20475;-71
2022/04/30 08:01:31;;;;;;;8.60;7.80;;;;;;;;;;5092426;28;20459;-72
2022/04/30 08:04:00;;;;;;;10.50;7.87;;;;;;;;;;5092080;28;20959;-72
2022/04/30 08:06:27;;;;;;;8.67;7.97;;;;;;;;;;5092226;28;20457;-72
2022/04/30 08:08:54;;;;;;;12.60;7.40;;;;;;;;;;5092164;28;20840;-72
2022/04/30 08:11:21;;;;;;;7.37;6.73;;;;;;;;;;5092118;28;20451;-71
2022/04/30 08:13:48;;;;;;;8.00;7.30;;;;;;;;;;5091660;28;20814;-72
2022/04/30 08:16:15;;;;;;;7.30;6.30;;;;;;;;;;5091632;28;20447;-71
2022/04/30 08:18:42;;;;;;;7.37;6.77;;;;;;;;;;5091767;28;20478;-71
2022/04/30 08:21:11;;;;;;;12.87;7.50;;;;;;;;;;5091398;28;20479;-71
2022/04/30 08:23:38;;;;;;;6.70;6.20;;;;;;;;;;5090836;28;20469;-71
2022/04/30 08:26:05;;;;;;;6.80;6.20;;;;;;;;;;5091512;28;20450;-71
2022/04/30 08:28:32;;;;;;;7.70;7.00;;;;;;;;;;5091661;28;20935;-71
2022/04/30 08:30:59;;;;;;;8.60;7.40;;;;;;;;;;5091844;28;20455;-71
2022/04/30 08:33:27;;;;;;;9.20;7.67;;;;;;;;;;5091903;28;20458;-71
2022/04/30 08:35:56;;;;;;;7.80;6.43;;;;;;;;;;5091423;28;20486;-71
2022/04/30 08:38:24;;;;;;;7.93;6.50;;;;;;;;;;5091517;28;20455;-72
2022/04/30 08:40:51;;;;;;;9.63;6.43;;;;;;;;;;5091486;28;20940;-72
2022/04/30 08:43:21;;;;;;;7.77;6.67;;;;;;;;;;5091543;28;20447;-72
2022/04/30 08:45:48;;;;;;;7.30;6.37;;;;;;;;;;5091766;28;20457;-72
2022/04/30 08:48:16;;;;;;;7.53;6.80;;;;;;;;;;5091340;28;20450;-72
2022/04/30 08:50:44;;;;;;;5.50;5.10;;;;;;;;;;5091191;28;20479;-72
2022/04/30 08:53:12;;;;;;;8.40;6.70;;;;;;;;;;5091390;28;20442;-72
2022/04/30 08:55:40;;;;;;;6.13;5.53;;;;;;;;;;5091508;28;20904;-72
2022/04/30 08:58:08;;;;;;;5.97;5.53;;;;;;;;;;5091330;28;20461;-72
2022/04/30 09:00:40;;;;;;;6.87;6.17;;;;;;;;;;5094468;28;20975;-72
2022/04/30 09:03:07;;;;;;;7.20;6.47;;;;;;;;;;5095500;28;20423;-72
2022/04/30 09:05:36;;;;;;;7.07;6.30;;;;;;;;;;5095120;28;20443;-71
2022/04/30 09:08:04;;;;;;;8.47;7.63;;;;;;;;;;5095484;28;20458;-72
2022/04/30 09:10:32;;;;;;;8.00;7.30;;;;;;;;;;5095373;28;20478;-72
2022/04/30 09:13:07;;;;;;;8.30;7.13;;;;;;;;;;5095104;28;20446;-72
2022/04/30 09:15:34;;;;;;;8.93;6.77;;;;;;;;;;5095234;28;20488;-72
2022/04/30 09:18:02;;;;;;;4.50;4.17;;;;;;;;;;5095004;28;20446;-72
2022/04/30 09:20:30;;;;;;;6.10;5.50;;;;;;;;;;5094839;28;20478;-72
2022/04/30 09:22:57;;;;;;;5.27;4.87;;;;;;;;;;5094737;28;20836;-72
2022/04/30 09:25:25;;;;;;;5.20;4.70;;;;;;;;;;5095286;28;20446;-71
2022/04/30 09:27:53;;;;;;;5.17;4.47;;;;;;;;;;5094968;28;20442;-71
2022/04/30 09:30:22;;;;;;;6.50;5.70;;;;;;;;;;5094524;28;20474;-71
2022/04/30 09:32:58;;;;;;;6.70;5.73;;;;;;;;;;5095177;28;20451;-71
2022/04/30 09:38:10;;;;;;;7.37;5.43;;;;;;;;;;5096031;28;20444;-72
2022/04/30 09:40:38;;;;;;;16.50;6.00;;;;;;;;;;5095937;28;20986;-72
2022/04/30 09:43:05;;;;;;;5.73;5.10;;;;;;;;;;5095964;28;20454;-71
2022/04/30 09:45:35;;;;;;;5.30;4.80;;;;;;;;;;5095866;28;21050;-71
2022/04/30 09:53:56;;;;;;;6.63;6.00;;;;;;;;;;5095964;28;20527;-71
2022/04/30 09:56:27;;;;;;;6.40;5.90;;;;;;;;;;5095543;28;20908;-71
2022/04/30 09:58:55;;;;;;;7.80;7.00;;;;;;;;;;5095681;28;20475;-71
2022/04/30 10:01:24;;;;;;;6.57;5.97;;;;;;;;;;5095600;28;20453;-71
2022/04/30 10:03:51;;;;;;;7.00;6.43;;;;;;;;;;5095386;28;20455;-71
2022/04/30 10:06:18;;;;;;;17.77;6.63;;;;;;;;;;5095711;28;20454;-71
2022/04/30 10:08:46;;;;;;;7.80;6.67;;;;;;;;;;5095626;28;20520;-71
2022/04/30 10:11:17;;;;;;;9.63;6.77;;;;;;;;;;5094488;28;20913;-71
2022/04/30 10:13:50;;;;;;;6.70;6.00;;;;;;;;;;5095289;28;20450;-72
2022/04/30 10:16:20;;;;;;;16.13;7.27;;;;;;;;;;5095290;28;20533;-71
2022/04/30 10:18:59;;;;;;;7.50;6.87;;;;;;;;;;5095307;28;20470;-71
2022/04/30 10:21:26;;;;;;;8.13;7.33;;;;;;;;;;5095219;28;20454;-72
2022/04/30 10:24:01;;;;;;;7.67;6.97;;;;;;;;;;5094585;28;20473;-72
2022/04/30 10:26:28;;;;;;;7.80;6.90;;;;;;;;;;5095177;28;20446;-72
2022/04/30 10:28:59;;;;;;;8.60;7.33;;;;;;;;;;5095084;28;20463;-72
2022/04/30 10:31:26;;;;;;;7.70;7.00;;;;;;;;;;5095365;28;20439;-71
2022/04/30 10:33:53;;;;;;;7.50;6.90;;;;;;;;;;5095011;28;20979;-72
2022/04/30 10:36:23;;;;;;;7.53;6.83;;;;;;;;;;5094968;28;20486;-72
2022/04/30 10:38:59;;;;;;;7.20;6.60;;;;;;;;;;5095257;28;20824;-72
2022/04/30 10:41:27;;;;;;;9.30;7.27;;;;;;;;;;5095007;28;20460;-72
2022/04/30 10:44:02;;;;;;;7.37;6.67;;;;;;;;;;5094620;28;20450;-72
2022/04/30 10:46:36;;;;;;;7.60;6.90;;;;;;;;;;5094850;28;20455;-72
2022/04/30 10:49:04;;;;;;;9.13;6.90;;;;;;;;;;5094708;28;20480;-72
2022/04/30 10:51:39;;;;;;;7.00;6.13;;;;;;;;;;5094789;28;20442;-72
2022/04/30 10:54:09;;;;;;;8.43;7.27;;;;;;;;;;5094755;28;20998;-72
2022/04/30 10:56:36;;;;;;;10.03;7.10;;;;;;;;;;5094608;28;21025;-72
2022/04/30 10:59:03;;;;;;;7.73;7.07;;;;;;;;;;5094321;28;20513;-72
2022/04/30 11:01:30;;;;;;;7.23;6.53;;;;;;;;;;5092688;28;20451;-72
2022/04/30 11:03:57;;;;;;;7.70;7.00;;;;;;;;;;5073954;28;20459;-72
2022/04/30 11:06:25;;;;;;;7.57;6.87;;;;;;;;;;5074347;28;20448;-72
2022/04/30 11:09:04;;;;;;;7.17;6.57;;;;;;;;;;5074069;28;20468;-72
2022/04/30 11:11:32;;;;;;;7.90;6.70;;;;;;;;;;5074208;28;20821;-72
2022/04/30 11:14:03;;;;;;;7.50;6.90;;;;;;;;;;5073773;28;20451;-72
2022/04/30 11:16:34;;;;;;;7.20;6.50;;;;;;;;;;5073962;28;20860;-72
2022/04/30 11:19:03;;;;;;;7.50;6.80;;;;;;;;;;5073778;28;20483;-71
2022/04/30 11:21:34;;;;;;;8.07;7.27;;;;;;;;;;5073913;28;20455;-71
2022/04/30 11:24:02;;;;;;;9.20;8.20;;;;;;;;;;5073571;28;20495;-72
2022/04/30 11:26:30;;;;;;;10.50;7.10;;;;;;;;;;5073948;28;20459;-71
2022/04/30 11:28:58;;;;;;;8.97;8.07;;;;;;;;;;5073658;28;20480;-71
2022/04/30 11:31:25;;;;;;;8.17;7.37;;;;;;;;;;5073756;28;20452;-71
2022/04/30 11:33:52;;;;;;;12.93;8.40;;;;;;;;;;5073495;28;20459;-71
2022/04/30 11:36:19;;;;;;;9.10;8.20;;;;;;;;;;5073449;28;20996;-72
2022/04/30 11:38:53;;;;;;;11.63;9.53;;;;;;;;;;5073958;28;20974;-71
2022/04/30 11:41:21;;;;;;;10.37;9.17;;;;;;;;;;5073557;28;20455;-71
2022/04/30 11:43:58;;;;;;;11.40;8.60;;;;;;;;;;5073412;28;20941;-72
2022/04/30 11:46:25;;;;;;;9.73;8.40;;;;;;;;;;5073657;28;20440;-71
2022/04/30 11:48:53;;;;;;;8.67;7.77;;;;;;;;;;5073465;28;20482;-71
2022/04/30 11:51:20;;;;;;;9.20;8.30;;;;;;;;;;5073361;28;20448;-72
2022/04/30 11:53:47;;;;;;;8.90;7.00;;;;;;;;;;5073527;28;20443;-71
2022/04/30 11:56:14;;;;;;;8.87;8.07;;;;;;;;;;5073181;28;20491;-71
2022/04/30 11:58:43;;;;;;;12.40;7.20;;;;;;;;;;5073221;28;20884;-71
2022/04/30 12:01:23;;;;;;;8.97;8.07;;;;;;;;;;5073201;28;20456;-71
2022/04/30 12:03:54;;;;;;;7.30;6.60;;;;;;;;;;5073031;28;20455;-72
2022/04/30 12:06:21;;;;;;;7.17;6.20;;;;;;;;;;5073143;28;20455;-71
2022/04/30 12:08:48;;;;;;;7.43;6.83;;;;;;;;;;5073113;28;20503;-71
2022/04/30 12:11:15;;;;;;;7.93;6.80;;;;;;;;;;5073457;28;20463;-72
2022/04/30 12:13:44;;;;;;;8.80;6.37;;;;;;;;;;5091044;28;20950;-72
2022/04/30 12:16:11;;;;;;;8.00;7.20;;;;;;;;;;5091711;28;20486;-72
2022/04/30 12:26:54;;;;;;;7.50;6.70;;;;;;;;;;5091632;28;20429;-71
2022/04/30 12:29:23;;;;;;;11.60;6.57;;;;;;;;;;5091808;28;20528;-71
2022/04/30 12:31:51;;;;;;;11.30;6.77;;;;;;;;;;5091689;28;20860;-71
2022/04/30 12:34:19;;;;;;;8.30;7.40;;;;;;;;;;5090804;28;20497;-71
2022/04/30 12:36:53;;;;;;;7.90;7.10;;;;;;;;;;5091690;28;20489;-71
2022/04/30 12:39:22;;;;;;;8.20;7.50;;;;;;;;;;5091558;28;20983;-71
2022/04/30 12:41:49;;;;;;;9.57;8.57;;;;;;;;;;5091347;28;20991;-71
2022/04/30 12:44:16;;;;;;;10.07;9.17;;;;;;;;;;5090954;28;20721;-71
2022/04/30 12:46:46;;;;;;;9.57;8.40;;;;;;;;;;5091800;28;20465;-71
2022/04/30 12:49:13;;;;;;;23.37;9.30;;;;;;;;;;5091320;28;20487;-72
2022/04/30 12:51:40;;;;;;;7.87;7.03;;;;;;;;;;5091666;28;20451;-71
2022/04/30 12:54:07;;;;;;;8.33;7.20;;;;;;;;;;5091239;28;20945;-71
2022/04/30 12:56:35;;;;;;;7.53;6.70;;;;;;;;;;5091247;28;20526;-72
2022/04/30 12:59:02;;;;;;;9.20;7.47;;;;;;;;;;5091357;28;20474;-72
2022/04/30 13:01:29;;;;;;;13.63;7.77;;;;;;;;;;5091517;28;20821;-72
2022/04/30 13:03:58;;;;;;;9.00;7.40;;;;;;;;;;5091037;28;20830;-71
2022/04/30 13:06:25;;;;;;;6.30;5.67;;;;;;;;;;5091558;28;20450;-71
2022/04/30 13:14:24;;;;;;;7.20;6.57;;;;;;;;;;5091309;28;20410;-72
2022/04/30 13:16:51;;;;;;;8.63;6.10;;;;;;;;;;5090166;28;20493;-71
2022/04/30 13:19:20;;;;;;;6.53;5.80;;;;;;;;;;5090847;28;20496;-72
2022/04/30 13:21:47;;;;;;;8.23;6.20;;;;;;;;;;5089410;28;20812;-71
2022/04/30 13:24:14;;;;;;;5.97;5.47;;;;;;;;;;5071819;28;20468;-71
2022/04/30 13:26:42;;;;;;;7.00;6.40;;;;;;;;;;5072319;28;20451;-73
2022/04/30 13:29:10;;;;;;;7.57;6.83;;;;;;;;;;5071666;28;20478;-72
2022/04/30 13:31:38;;;;;;;9.47;7.37;;;;;;;;;;5072442;28;20546;-71
2022/04/30 13:34:05;;;;;;;7.20;6.50;;;;;;;;;;5072175;28;20506;-73
2022/04/30 13:36:34;;;;;;;8.83;7.97;;;;;;;;;;5072376;28;20969;-72
2022/04/30 13:39:02;;;;;;;8.93;8.03;;;;;;;;;;5072340;28;20471;-72
2022/04/30 13:41:29;;;;;;;14.27;7.87;;;;;;;;;;5072509;28;20948;-72
2022/04/30 13:43:56;;;;;;;11.93;8.03;;;;;;;;;;5072281;28;20452;-73
2022/04/30 13:46:23;;;;;;;13.97;8.40;;;;;;;;;;5073690;28;20842;-73
2022/04/30 13:48:50;;;;;;;8.70;7.90;;;;;;;;;;5076085;28;20510;-72
2022/04/30 13:51:18;;;;;;;8.70;7.60;;;;;;;;;;5075919;28;20458;-71
2022/04/30 13:53:46;;;;;;;9.17;8.23;;;;;;;;;;5076007;28;20459;-71
2022/04/30 13:56:14;;;;;;;8.43;7.63;;;;;;;;;;5076012;28;21023;-72
2022/04/30 13:58:41;;;;;;;9.30;8.40;;;;;;;;;;5076110;28;20479;-71
2022/04/30 14:01:08;;;;;;;14.97;10.77;;;;;;;;;;5076019;28;20813;-71
2022/04/30 14:03:36;;;;;;;12.00;10.73;;;;;;;;;;5075990;28;20483;-72
2022/04/30 14:06:03;;;;;;;15.10;12.07;;;;;;;;;;5075963;28;20473;-73
2022/04/30 14:08:30;;;;;;;14.33;12.43;;;;;;;;;;5075457;28;20496;-73
2022/04/30 14:10:59;;;;;;;15.57;13.97;;;;;;;;;;5075549;28;20455;-73
2022/04/30 14:16:11;;;;;;;19.33;15.60;;;;;;;;;;5075220;28;20481;-71
2022/04/30 14:18:38;;;;;;;15.63;14.13;;;;;;;;;;5075223;28;20944;-71
2022/04/30 14:21:08;;;;;;;19.07;15.03;;;;;;;;;;5075120;28;20478;-71
2022/04/30 14:23:36;;;;;;;23.73;15.17;;;;;;;;;;5074731;28;20517;-72
2022/04/30 14:26:05;;;;;;;16.80;15.10;;;;;;;;;;5074985;28;20483;-72
2022/04/30 14:28:32;;;;;;;17.77;15.87;;;;;;;;;;5075070;28;20451;-72
2022/04/30 14:31:01;;;;;;;18.97;17.03;;;;;;;;;;5075002;28;20448;-72
2022/04/30 14:33:29;;;;;;;21.50;16.70;;;;;;;;;;5074876;28;20494;-73
2022/04/30 14:35:57;;;;;;;19.17;15.70;;;;;;;;;;5074777;28;20837;-72
2022/04/30 14:38:24;;;;;;;16.77;15.10;;;;;;;;;;5074798;28;20817;-72
2022/04/30 14:40:51;;;;;;;23.73;16.03;;;;;;;;;;5074844;28;20459;-72
2022/04/30 14:43:20;;;;;;;20.43;16.30;;;;;;;;;;5074803;28;20455;-72
2022/04/30 14:45:47;;;;;;;25.50;16.00;;;;;;;;;;5074822;28;20520;-72
2022/04/30 14:48:14;;;;;;;19.17;15.50;;;;;;;;;;5074880;28;20521;-72
2022/04/30 14:50:42;;;;;;;18.93;16.43;;;;;;;;;;5074778;28;20486;-73
2022/04/30 14:53:10;;;;;;;23.87;14.93;;;;;;;;;;5074597;28;20487;-72
2022/04/30 14:55:37;;;;;;;20.90;15.53;;;;;;;;;;5074313;28;20440;-72
2022/04/30 14:58:04;;;;;;;27.00;17.57;;;;;;;;;;5074047;28;20551;-72
2022/04/30 15:00:33;;;;;;;20.03;15.60;;;;;;;;;;5074374;28;20470;-72
2022/04/30 15:03:00;;;;;;;21.13;17.63;;;;;;;;;;5074615;28;20823;-74
2022/04/30 15:05:27;;;;;;;19.63;15.63;;;;;;;;;;5074692;28;20460;-72
2022/04/30 15:07:55;;;;;;;20.40;14.90;;;;;;;;;;5074468;28;20443;-73
2022/04/30 15:10:23;;;;;;;21.90;16.17;;;;;;;;;;5074362;28;20564;-71
2022/04/30 15:12:50;;;;;;;17.83;15.00;;;;;;;;;;5074308;28;20521;-71
2022/04/30 15:15:17;;;;;;;19.63;15.90;;;;;;;;;;5073854;28;20444;-71
2022/04/30 15:17:46;;;;;;;18.43;16.53;;;;;;;;;;5074138;28;20901;-71
2022/04/30 15:20:13;;;;;;;19.90;15.40;;;;;;;;;;5073815;28;20885;-72
2022/04/30 15:22:40;;;;;;;44.23;21.80;;;;;;;;;;5073532;28;20501;-71
2022/04/30 15:25:07;;;;;;;21.03;18.27;;;;;;;;;;5073766;28;20455;-71
2022/04/30 15:27:36;;;;;;;23.90;17.37;;;;;;;;;;5073845;28;21009;-71